Time;durP1;ratioP1;P1;durP2;ratioP2;P2;SDS_P1;SDS_P2;PMS_P1;PMS_P2;Temp;Humidity;BMP_temperature;BMP_pressure;BME280_temperature;BME280_humidity;BME280_pressure;Samples;Min_cycle;Max_cycle;Signal;HPM_P1;HPM_P2
2022/12/17 13:06:41;;;;;;;0.30;0.30;;;-3.70;99.90;;;;;;5073473;28;20406;-81
2022/12/17 13:09:21;;;;;;;0.30;0.30;;;-3.60;99.90;;;;;;5073247;28;21015;-82
2022/12/17 13:11:49;;;;;;;0.30;0.20;;;-3.60;99.90;;;;;;5074092;28;20437;-81
2022/12/17 13:14:19;;;;;;;1.77;1.70;;;-3.60;99.90;;;;;;5073076;28;20443;-82
2022/12/17 13:16:52;;;;;;;0.30;0.30;;;-3.60;99.90;;;;;;5073462;28;20465;-81
2022/12/17 13:19:32;;;;;;;0.63;0.63;;;-3.60;99.90;;;;;;5073151;28;20430;-81
2022/12/17 13:22:12;;;;;;;0.33;0.33;;;-3.50;99.90;;;;;;5073392;28;20434;-81
2022/12/17 13:24:39;;;;;;;0.30;0.30;;;-3.50;99.90;;;;;;5072917;28;20913;-80
2022/12/17 13:27:28;;;;;;;0.30;0.30;;;-3.50;99.90;;;;;;5073425;28;20520;-81
2022/12/17 13:29:55;;;;;;;0.40;0.40;;;-3.50;99.90;;;;;;5073095;28;20389;-81
2022/12/17 13:32:27;;;;;;;1.93;0.87;;;-3.50;99.90;;;;;;5072945;28;20429;-81
2022/12/17 13:35:10;;;;;;;0.40;0.40;;;-3.50;99.90;;;;;;5073234;28;20444;-81
2022/12/17 13:37:44;;;;;;;0.50;0.50;;;-3.40;99.90;;;;;;5073058;28;20411;-81
2022/12/17 13:40:24;;;;;;;0.30;0.30;;;-3.40;99.90;;;;;;5072960;28;20438;-77
2022/12/17 13:42:52;;;;;;;0.50;0.50;;;-3.40;99.90;;;;;;5073126;28;20466;-77
2022/12/17 13:45:22;;;;;;;0.40;0.40;;;-3.50;99.90;;;;;;5072818;28;20941;-77
2022/12/17 13:47:54;;;;;;;0.30;0.30;;;-3.40;99.90;;;;;;5073135;28;20461;-77
2022/12/17 13:50:23;;;;;;;0.30;0.30;;;-3.40;99.90;;;;;;5072866;28;20962;-78
2022/12/17 13:52:51;;;;;;;0.80;0.80;;;-3.40;99.90;;;;;;5072700;28;20976;-77
2022/12/17 13:55:20;;;;;;;0.33;0.33;;;-3.40;99.90;;;;;;5072987;28;20512;-78
2022/12/17 13:57:48;;;;;;;0.30;0.30;;;-3.40;99.90;;;;;;5072628;28;20853;-78
2022/12/17 14:00:21;;;;;;;2.30;1.03;;;-3.40;99.90;;;;;;5073016;28;20457;-78
2022/12/17 14:02:49;;;;;;;0.47;0.47;;;-3.40;99.90;;;;;;5072598;28;20440;-77
2022/12/17 14:05:25;;;;;;;0.40;0.40;;;-3.50;99.90;;;;;;5073007;28;20420;-77
2022/12/17 14:07:57;;;;;;;0.80;0.40;;;-3.50;99.90;;;;;;5072682;28;20884;-77
2022/12/17 14:10:25;;;;;;;0.40;0.40;;;-3.50;99.90;;;;;;5072941;28;20444;-77
2022/12/17 14:12:51;;;;;;;0.53;0.53;;;-3.50;99.90;;;;;;5072529;28;20908;-76
2022/12/17 14:15:24;;;;;;;0.30;0.30;;;-3.50;99.90;;;;;;5072806;28;20477;-78
2022/12/17 14:17:53;;;;;;;1.77;1.77;;;-3.50;99.90;;;;;;5072895;28;20250;-77
2022/12/17 14:20:22;;;;;;;2.00;1.90;;;-3.50;99.90;;;;;;5072834;28;20441;-78
2022/12/17 14:22:52;;;;;;;0.30;0.30;;;-3.50;99.90;;;;;;5073154;28;20818;-78
2022/12/17 14:25:23;;;;;;;0.87;0.53;;;-3.60;99.90;;;;;;5072547;28;20876;-78
2022/12/17 14:27:53;;;;;;;1.40;1.07;;;-3.60;99.90;;;;;;5075382;28;20434;-78
2022/12/17 14:30:23;;;;;;;3.13;1.90;;;-3.70;99.90;;;;;;5076191;28;20868;-78
2022/12/17 14:32:50;;;;;;;0.40;0.40;;;-3.70;99.90;;;;;;5076302;28;20469;-77
2022/12/17 14:35:25;;;;;;;0.50;0.50;;;-3.70;99.90;;;;;;5076351;28;20456;-78
2022/12/17 14:37:52;;;;;;;3.50;1.57;;;-3.80;99.90;;;;;;5075995;28;20923;-77
2022/12/17 14:40:22;;;;;;;0.50;0.40;;;-3.80;99.90;;;;;;5076246;28;20419;-77
2022/12/17 14:42:49;;;;;;;0.30;0.30;;;-3.90;99.90;;;;;;5075832;28;20440;-78
2022/12/17 14:45:24;;;;;;;0.40;0.40;;;-3.90;99.90;;;;;;5076184;28;20416;-78
2022/12/17 14:47:56;;;;;;;0.83;0.77;;;-4.00;99.90;;;;;;5076103;28;20816;-78
2022/12/17 14:50:27;;;;;;;1.10;1.10;;;-4.00;99.90;;;;;;5076076;28;20499;-80
2022/12/17 14:52:55;;;;;;;0.67;0.67;;;-4.00;99.90;;;;;;5075994;28;20470;-78
2022/12/17 14:55:33;;;;;;;0.40;0.40;;;-4.00;99.90;;;;;;5075939;28;20460;-78
2022/12/17 14:58:24;;;;;;;0.30;0.30;;;-4.10;99.90;;;;;;5076038;28;20528;-78
2022/12/17 15:00:54;;;;;;;0.93;0.93;;;-4.10;99.90;;;;;;5065539;28;20428;-77
2022/12/17 15:03:25;;;;;;;0.67;0.67;;;-4.10;99.90;;;;;;5075428;28;20554;-79
2022/12/17 15:05:55;;;;;;;0.30;0.30;;;-4.20;99.90;;;;;;5075819;28;20433;-78
2022/12/17 15:08:22;;;;;;;0.63;0.63;;;-4.30;99.90;;;;;;5075746;28;20420;-78
2022/12/17 15:10:50;;;;;;;0.70;0.70;;;-4.40;99.90;;;;;;5075637;28;20452;-79
2022/12/17 15:13:17;;;;;;;0.47;0.47;;;-4.50;99.90;;;;;;5075227;28;20443;-78
2022/12/17 15:15:44;;;;;;;0.40;0.40;;;-4.60;99.90;;;;;;5075254;28;20996;-78
2022/12/17 15:18:10;;;;;;;0.40;0.40;;;-4.70;99.90;;;;;;5075587;28;20472;-78
2022/12/17 15:20:37;;;;;;;0.60;0.60;;;-4.70;99.90;;;;;;5075517;28;20445;-79
2022/12/17 15:23:04;;;;;;;0.70;0.70;;;-4.80;99.90;;;;;;5075208;28;20459;-78
2022/12/17 15:25:31;;;;;;;5.60;2.73;;;-4.80;99.90;;;;;;5075437;28;20453;-79
2022/12/17 15:27:59;;;;;;;0.87;0.87;;;-4.90;99.90;;;;;;5076007;28;20438;-78
2022/12/17 15:30:26;;;;;;;1.63;1.63;;;-4.90;99.90;;;;;;5075057;28;20449;-78
2022/12/17 15:32:52;;;;;;;0.30;0.30;;;-5.00;99.90;;;;;;5075298;28;20470;-78
2022/12/17 15:35:19;;;;;;;0.50;0.50;;;-5.00;99.90;;;;;;5075204;28;20460;-78
2022/12/17 15:37:46;;;;;;;0.50;0.50;;;-5.10;99.90;;;;;;5075017;28;20427;-79
2022/12/17 15:40:13;;;;;;;0.40;0.40;;;-5.20;99.90;;;;;;5075265;28;20415;-79
2022/12/17 15:45:26;;;;;;;0.37;0.37;;;-5.40;99.90;;;;;;5074935;28;20459;-78
2022/12/17 15:47:53;;;;;;;0.60;0.60;;;-5.40;99.90;;;;;;5074988;28;20862;-79
2022/12/17 15:50:20;;;;;;;0.60;0.60;;;-5.40;99.90;;;;;;5074674;28;20941;-79
2022/12/17 15:52:47;;;;;;;0.30;0.30;;;-5.50;99.90;;;;;;5074607;28;20454;-80
2022/12/17 15:55:14;;;;;;;0.53;0.53;;;-5.50;99.90;;;;;;5074908;28;20797;-80
2022/12/17 15:57:40;;;;;;;5.00;2.00;;;-5.60;99.90;;;;;;5074663;28;20473;-79
2022/12/17 16:00:08;;;;;;;1.97;1.77;;;-5.70;99.90;;;;;;5074755;28;20453;-79
2022/12/17 16:02:37;;;;;;;0.30;0.30;;;-5.70;99.90;;;;;;5074598;28;20445;-79
2022/12/17 16:05:04;;;;;;;0.70;0.70;;;-5.70;99.90;;;;;;5074666;28;20461;-79
2022/12/17 16:07:31;;;;;;;0.40;0.40;;;-5.70;99.90;;;;;;5074602;28;20523;-80
2022/12/17 16:09:57;;;;;;;0.30;0.30;;;-5.70;99.90;;;;;;5074573;28;20448;-79
2022/12/17 16:12:24;;;;;;;0.30;0.30;;;-5.70;99.90;;;;;;5074476;28;20442;-79
2022/12/17 16:14:51;;;;;;;0.30;0.30;;;-5.70;99.90;;;;;;5074455;28;20446;-79
2022/12/17 16:17:18;;;;;;;2.10;2.00;;;-5.70;99.90;;;;;;5074385;28;20452;-79
2022/12/17 16:19:46;;;;;;;1.50;0.83;;;-5.70;99.90;;;;;;5074363;28;20451;-80
2022/12/17 16:22:13;;;;;;;0.50;0.50;;;-5.70;99.90;;;;;;5074260;28;20446;-80
2022/12/17 16:24:39;;;;;;;0.30;0.30;;;-5.70;99.90;;;;;;5073786;28;20467;-79
2022/12/17 16:27:06;;;;;;;0.30;0.30;;;-5.80;99.90;;;;;;5074300;28;20400;-79
2022/12/17 16:29:33;;;;;;;0.57;0.57;;;-5.80;99.90;;;;;;5073852;28;20449;-79
2022/12/17 16:32:00;;;;;;;0.40;0.40;;;-5.80;99.90;;;;;;5074012;28;20449;-80
2022/12/17 16:34:27;;;;;;;0.30;0.30;;;-5.90;99.90;;;;;;5074112;28;20451;-79
2022/12/17 16:36:55;;;;;;;1.77;1.67;;;-6.00;99.90;;;;;;5073993;28;20444;-79
2022/12/17 16:39:22;;;;;;;0.33;0.33;;;-6.00;99.90;;;;;;5074014;28;20449;-80
2022/12/17 16:41:49;;;;;;;0.73;0.73;;;-6.00;99.90;;;;;;5073796;28;20442;-79
2022/12/17 16:44:16;;;;;;;8.03;2.20;;;-6.00;99.90;;;;;;5073836;28;20476;-80
2022/12/17 16:46:45;;;;;;;0.40;0.40;;;-6.00;99.90;;;;;;5073597;28;20941;-79
2022/12/17 16:49:13;;;;;;;0.60;0.60;;;-6.00;99.90;;;;;;5073293;28;20488;-79
2022/12/17 16:51:41;;;;;;;0.30;0.30;;;-6.10;99.90;;;;;;5073765;28;20448;-79
2022/12/17 16:54:13;;;;;;;1.43;1.33;;;-6.10;99.90;;;;;;5073741;28;20457;-79
2022/12/17 16:56:41;;;;;;;3.60;1.07;;;-6.10;99.90;;;;;;5073363;28;20472;-79
2022/12/17 16:59:09;;;;;;;1.93;1.83;;;-6.10;99.90;;;;;;5073803;28;20456;-79
2022/12/17 17:01:38;;;;;;;2.13;1.93;;;-6.10;99.90;;;;;;5073414;28;20804;-79
2022/12/17 17:04:06;;;;;;;0.30;0.30;;;-6.10;99.90;;;;;;5073647;28;20465;-79
2022/12/17 17:06:33;;;;;;;6.10;1.53;;;-6.10;99.90;;;;;;5073581;28;20450;-80
2022/12/17 17:09:02;;;;;;;1.13;1.13;;;-6.10;99.90;;;;;;5073570;28;20460;-80
2022/12/17 17:11:30;;;;;;;0.80;0.80;;;-6.00;99.90;;;;;;5073298;28;20434;-80
2022/12/17 17:13:57;;;;;;;0.40;0.40;;;-6.10;99.90;;;;;;5073137;28;21000;-80
2022/12/17 17:16:25;;;;;;;0.70;0.70;;;-6.10;99.90;;;;;;5073399;28;20496;-79
2022/12/17 17:18:52;;;;;;;0.30;0.30;;;-6.10;99.90;;;;;;5074054;28;20449;-79
2022/12/17 17:21:28;;;;;;;1.13;1.03;;;-6.10;99.90;;;;;;5073468;28;20429;-80
2022/12/17 17:23:58;;;;;;;0.40;0.40;;;-6.10;99.90;;;;;;5072858;28;21005;-79
2022/12/17 17:26:25;;;;;;;0.30;0.30;;;-6.10;99.90;;;;;;5073111;28;20485;-79
2022/12/17 17:28:53;;;;;;;0.40;0.40;;;-6.10;99.90;;;;;;5073333;28;20408;-80
2022/12/17 17:31:22;;;;;;;0.40;0.40;;;-6.10;99.90;;;;;;5073329;28;20453;-79
2022/12/17 17:33:50;;;;;;;0.30;0.30;;;-6.10;99.90;;;;;;5073098;28;20452;-80
2022/12/17 17:36:19;;;;;;;0.30;0.30;;;-6.10;99.90;;;;;;5073221;28;20481;-80
2022/12/17 17:38:47;;;;;;;0.40;0.40;;;-6.10;99.90;;;;;;5072996;28;20441;-80
2022/12/17 17:41:16;;;;;;;0.70;0.70;;;-6.00;99.90;;;;;;5072962;28;20507;-79
2022/12/17 17:43:43;;;;;;;1.07;1.07;;;-6.00;99.90;;;;;;5072932;28;20824;-80
2022/12/17 17:46:14;;;;;;;2.30;1.70;;;-6.00;99.90;;;;;;5072922;28;20439;-80
2022/12/17 17:48:41;;;;;;;1.60;1.50;;;-5.90;99.90;;;;;;5072942;28;20419;-80
2022/12/17 17:51:11;;;;;;;0.40;0.40;;;-6.00;99.90;;;;;;5073128;28;20445;-80
2022/12/17 17:53:38;;;;;;;0.40;0.40;;;-5.90;99.90;;;;;;5073144;28;20477;-80
2022/12/17 17:56:07;;;;;;;0.30;0.30;;;-5.90;99.90;;;;;;5073067;28;20445;-79
2022/12/17 17:58:34;;;;;;;0.30;0.30;;;-6.00;99.90;;;;;;5073128;28;20445;-80
2022/12/17 18:01:08;;;;;;;0.60;0.60;;;-6.10;99.90;;;;;;5074193;28;20531;-80
2022/12/17 18:03:37;;;;;;;0.37;0.37;;;-6.20;99.90;;;;;;5076694;28;20834;-79
2022/12/17 18:06:05;;;;;;;0.97;0.80;;;-6.20;99.90;;;;;;5076653;28;20445;-80
2022/12/17 18:08:33;;;;;;;0.50;0.50;;;-6.20;99.90;;;;;;5076577;28;20990;-80
2022/12/17 18:11:00;;;;;;;0.30;0.30;;;-6.30;99.90;;;;;;5076566;28;20454;-80
2022/12/17 18:16:12;;;;;;;0.30;0.30;;;-6.40;99.90;;;;;;5076582;28;20456;-80
2022/12/17 18:18:41;;;;;;;0.77;0.77;;;-6.40;99.90;;;;;;5076407;28;20423;-80
2022/12/17 18:21:09;;;;;;;0.93;0.93;;;-6.50;99.90;;;;;;5076664;28;20445;-80
2022/12/17 18:23:37;;;;;;;0.30;0.30;;;-6.50;99.90;;;;;;5076024;28;20988;-80
2022/12/17 18:26:06;;;;;;;0.57;0.57;;;-6.50;99.90;;;;;;5076546;28;20457;-80
2022/12/17 18:28:33;;;;;;;0.60;0.60;;;-6.50;99.90;;;;;;5076455;28;20476;-80
2022/12/17 18:31:06;;;;;;;0.83;0.83;;;-6.60;99.90;;;;;;5076220;28;20460;-79
2022/12/17 18:33:33;;;;;;;1.93;1.40;;;-6.50;99.90;;;;;;5076385;28;20811;-80
2022/12/17 18:36:01;;;;;;;0.90;0.90;;;-6.40;99.90;;;;;;5076352;28;20441;-80
2022/12/17 18:38:28;;;;;;;5.17;1.27;;;-6.50;99.90;;;;;;5076235;28;20481;-79
2022/12/17 18:40:55;;;;;;;1.13;1.13;;;-6.50;99.90;;;;;;5076014;28;20467;-78
2022/12/17 18:43:23;;;;;;;0.40;0.40;;;-6.50;99.90;;;;;;5076127;28;20470;-80
2022/12/17 18:45:51;;;;;;;0.30;0.30;;;-6.50;99.90;;;;;;5075939;28;20438;-80
2022/12/17 18:48:18;;;;;;;0.67;0.67;;;-6.50;99.90;;;;;;5075852;28;20807;-80
2022/12/17 18:50:44;;;;;;;0.37;0.37;;;-6.40;99.90;;;;;;5075794;28;20424;-80
2022/12/17 18:53:13;;;;;;;0.40;0.40;;;-6.40;99.90;;;;;;5075703;28;20478;-80
2022/12/17 18:55:40;;;;;;;1.90;1.80;;;-6.40;99.90;;;;;;5076065;28;20468;-80
2022/12/17 18:58:07;;;;;;;0.50;0.50;;;-6.40;99.90;;;;;;5075652;28;21074;-80
2022/12/17 19:00:36;;;;;;;0.30;0.30;;;-6.50;99.90;;;;;;5076002;28;20441;-80
2022/12/17 19:03:04;;;;;;;0.30;0.20;;;-6.50;99.90;;;;;;5075539;28;20565;-80
2022/12/17 19:05:31;;;;;;;1.90;1.80;;;-6.60;99.90;;;;;;5075861;28;20458;-80
2022/12/17 19:07:58;;;;;;;0.40;0.40;;;-6.60;99.90;;;;;;5075841;28;20872;-80
2022/12/17 19:10:26;;;;;;;0.60;0.60;;;-6.60;99.90;;;;;;5075478;28;20972;-80
2022/12/17 19:12:53;;;;;;;0.73;0.73;;;-6.60;99.90;;;;;;5075056;28;20470;-80
2022/12/17 19:15:20;;;;;;;0.40;0.40;;;-6.60;99.90;;;;;;5075673;28;20453;-81
2022/12/17 19:17:49;;;;;;;0.30;0.30;;;-6.60;99.90;;;;;;5075575;28;20484;-80
2022/12/17 19:20:17;;;;;;;1.03;1.03;;;-6.60;99.90;;;;;;5075272;28;20876;-80
2022/12/17 19:22:44;;;;;;;0.30;0.30;;;-6.60;99.90;;;;;;5075200;28;20496;-80
2022/12/17 19:25:11;;;;;;;0.40;0.40;;;-6.60;99.90;;;;;;5075481;28;20441;-81
2022/12/17 19:27:39;;;;;;;0.40;0.40;;;-6.50;99.90;;;;;;5075487;28;20470;-81
2022/12/17 19:30:07;;;;;;;0.40;0.40;;;-6.50;99.90;;;;;;5075108;28;20965;-80
2022/12/17 19:32:34;;;;;;;0.50;0.50;;;-6.40;99.90;;;;;;5075247;28;20449;-80
2022/12/17 19:35:01;;;;;;;0.47;0.47;;;-6.40;99.90;;;;;;5075304;28;20441;-80
2022/12/17 19:37:27;;;;;;;0.40;0.40;;;-6.40;99.90;;;;;;5075158;28;20486;-80
2022/12/17 19:39:54;;;;;;;0.30;0.30;;;-6.40;99.90;;;;;;5075201;28;20430;-80
2022/12/17 19:42:27;;;;;;;1.03;1.03;;;-6.40;99.90;;;;;;5074793;28;20957;-80
2022/12/17 19:44:55;;;;;;;0.50;0.50;;;-6.40;99.90;;;;;;5074866;28;20432;-80
2022/12/17 19:47:22;;;;;;;0.30;0.30;;;-6.40;99.90;;;;;;5074852;28;20808;-80
2022/12/17 19:49:50;;;;;;;0.50;0.50;;;-6.40;99.90;;;;;;5075026;28;20449;-80
2022/12/17 19:52:16;;;;;;;0.57;0.57;;;-6.50;99.90;;;;;;5074934;28;20423;-80
2022/12/17 19:54:43;;;;;;;0.53;0.53;;;-6.50;99.90;;;;;;5074845;28;20469;-80
2022/12/17 19:57:10;;;;;;;0.37;0.37;;;-6.60;99.90;;;;;;5074511;28;20485;-80
2022/12/17 19:59:37;;;;;;;0.30;0.30;;;-6.60;99.90;;;;;;5074812;28;20428;-80
2022/12/17 20:02:05;;;;;;;0.70;0.70;;;-6.70;99.90;;;;;;5074768;28;20456;-80
2022/12/17 20:04:31;;;;;;;0.87;0.87;;;-6.70;99.90;;;;;;5074641;28;20466;-80
2022/12/17 20:06:59;;;;;;;0.30;0.30;;;-6.80;99.90;;;;;;5074626;28;20455;-80
2022/12/17 20:09:26;;;;;;;0.63;0.63;;;-6.70;99.90;;;;;;5074603;28;20424;-81
2022/12/17 20:11:53;;;;;;;0.77;0.77;;;-6.80;99.90;;;;;;5074233;28;20449;-80
2022/12/17 20:14:22;;;;;;;0.40;0.40;;;-6.80;99.90;;;;;;5074144;28;21085;-81
2022/12/17 20:16:50;;;;;;;0.93;0.83;;;-6.80;99.90;;;;;;5074357;28;20448;-80
2022/12/17 20:19:20;;;;;;;2.77;1.37;;;-6.80;99.90;;;;;;5074395;28;20445;-80
2022/12/17 20:21:47;;;;;;;0.30;0.30;;;-6.80;99.90;;;;;;5074409;28;20430;-81
2022/12/17 20:24:15;;;;;;;0.80;0.80;;;-6.80;99.90;;;;;;5072903;28;20485;-80
2022/12/17 20:26:43;;;;;;;0.60;0.60;;;-6.80;99.90;;;;;;5075059;28;20448;-81
2022/12/17 20:29:10;;;;;;;0.33;0.33;;;-6.80;99.90;;;;;;5074197;28;20445;-81
2022/12/17 20:31:38;;;;;;;0.50;0.50;;;-6.70;99.90;;;;;;5074189;28;20446;-80
2022/12/17 20:34:07;;;;;;;0.50;0.50;;;-6.80;99.90;;;;;;5074078;28;20455;-81
2022/12/17 20:36:37;;;;;;;0.30;0.30;;;-6.80;99.90;;;;;;5073768;28;20459;-81
2022/12/17 20:39:04;;;;;;;0.50;0.50;;;-6.80;99.90;;;;;;5073969;28;20461;-81
2022/12/17 20:41:31;;;;;;;0.60;0.60;;;-6.80;99.90;;;;;;5073997;28;20446;-80
2022/12/17 20:44:02;;;;;;;0.30;0.30;;;-6.90;99.90;;;;;;5073848;28;20554;-81
2022/12/17 20:46:29;;;;;;;0.40;0.40;;;-6.80;99.90;;;;;;5073949;28;20445;-81
2022/12/17 20:48:55;;;;;;;0.63;0.63;;;-6.80;99.90;;;;;;5073897;28;20441;-81
2022/12/17 20:51:24;;;;;;;0.30;0.30;;;-6.80;99.90;;;;;;5073819;28;20450;-83
2022/12/17 20:53:53;;;;;;;0.30;0.30;;;-6.80;99.90;;;;;;5073405;28;21007;-80
2022/12/17 20:56:22;;;;;;;0.30;0.30;;;-6.80;99.90;;;;;;5073472;28;20823;-78
2022/12/17 20:58:52;;;;;;;0.30;0.30;;;-6.80;99.90;;;;;;5073337;28;20477;-78
2022/12/17 21:01:22;;;;;;;0.53;0.53;;;-6.80;99.90;;;;;;5073742;28;20447;-79
2022/12/17 21:03:50;;;;;;;0.30;0.30;;;-6.80;99.90;;;;;;5073665;28;20480;-78
2022/12/17 21:06:20;;;;;;;0.30;0.30;;;-6.80;99.90;;;;;;5073347;28;20452;-80
2022/12/17 21:08:47;;;;;;;0.70;0.70;;;-6.80;99.90;;;;;;5073613;28;20441;-80
2022/12/17 21:11:17;;;;;;;1.23;1.23;;;-6.90;99.90;;;;;;5073540;28;20456;-80
2022/12/17 21:13:44;;;;;;;0.30;0.30;;;-6.90;99.90;;;;;;5073087;28;20556;-81
2022/12/17 21:16:13;;;;;;;1.67;1.60;;;-6.90;99.90;;;;;;5073499;28;20488;-80
2022/12/17 21:18:41;;;;;;;1.23;1.23;;;-6.90;99.90;;;;;;5073080;28;20524;-80
2022/12/17 21:21:10;;;;;;;2.20;0.93;;;-6.90;99.90;;;;;;5073137;28;20464;-79
2022/12/17 21:23:38;;;;;;;0.60;0.60;;;-6.90;99.90;;;;;;5072982;28;20477;-79
2022/12/17 21:26:08;;;;;;;2.20;2.10;;;-6.90;99.90;;;;;;5073706;28;20525;-80
2022/12/17 21:28:38;;;;;;;0.50;0.50;;;-6.90;99.90;;;;;;5073352;28;20449;-79
2022/12/17 21:31:05;;;;;;;0.70;0.70;;;-7.00;99.90;;;;;;5073083;28;20434;-81
2022/12/17 21:33:32;;;;;;;0.30;0.30;;;-7.00;99.90;;;;;;5073275;28;20492;-80
2022/12/17 21:36:00;;;;;;;0.30;0.30;;;-7.10;99.90;;;;;;5073000;28;20544;-80
2022/12/17 21:38:27;;;;;;;0.50;0.50;;;-7.10;99.90;;;;;;5073186;28;20496;-80
2022/12/17 21:40:54;;;;;;;0.73;0.73;;;-7.10;99.90;;;;;;5073084;28;20454;-81
2022/12/17 21:43:21;;;;;;;0.30;0.30;;;-7.10;99.90;;;;;;5073159;28;20469;-81
2022/12/17 21:45:55;;;;;;;0.97;0.97;;;-7.10;99.90;;;;;;5073185;28;20450;-81
2022/12/17 21:48:22;;;;;;;0.30;0.30;;;-7.20;99.90;;;;;;5074054;28;20426;-82
2022/12/17 21:50:49;;;;;;;1.27;1.17;;;-7.20;99.90;;;;;;5072991;28;20432;-80
2022/12/17 21:53:16;;;;;;;3.23;0.97;;;-7.20;99.90;;;;;;5072903;28;20448;-81
2022/12/17 21:55:43;;;;;;;0.30;0.30;;;-7.20;99.90;;;;;;5072945;28;20773;-81
2022/12/17 21:58:10;;;;;;;0.53;0.53;;;-7.20;99.90;;;;;;5072708;28;20579;-81
2022/12/17 22:00:37;;;;;;;0.60;0.60;;;-7.30;99.90;;;;;;5073467;28;20406;-82
2022/12/17 22:03:05;;;;;;;0.83;0.83;;;-7.30;99.90;;;;;;5072985;28;20475;-82
2022/12/17 22:05:32;;;;;;;0.30;0.30;;;-7.30;99.90;;;;;;5072720;28;20977;-81
2022/12/17 22:07:59;;;;;;;0.30;0.30;;;-7.30;99.90;;;;;;5072697;28;20453;-81
2022/12/17 22:10:26;;;;;;;0.30;0.30;;;-7.30;99.90;;;;;;5072714;28;20434;-81
2022/12/17 22:15:54;;;;;;;0.40;0.40;;;-7.40;99.90;;;;;;5010987;28;20578;-82
2022/12/17 22:18:22;;;;;;;0.63;0.63;;;-7.40;99.90;;;;;;5010823;28;20491;-82
2022/12/17 22:20:57;;;;;;;3.47;1.73;;;-7.40;99.90;;;;;;5038776;28;20975;-82
2022/12/17 22:23:24;;;;;;;0.30;0.30;;;-7.40;99.90;;;;;;5072408;28;20488;-82
2022/12/17 22:25:51;;;;;;;0.47;0.47;;;-7.40;99.90;;;;;;5073071;28;20432;-82
2022/12/17 22:28:18;;;;;;;0.40;0.40;;;-7.40;99.90;;;;;;5072803;28;20460;-81
2022/12/17 22:33:30;;;;;;;0.30;0.30;;;-7.50;99.90;;;;;;5072521;28;20477;-81
2022/12/17 22:36:00;;;;;;;0.30;0.20;;;-7.40;99.90;;;;;;5072468;28;20908;-82
2022/12/17 22:38:27;;;;;;;0.70;0.70;;;-7.40;99.90;;;;;;5072693;28;20492;-82
2022/12/17 22:40:54;;;;;;;0.30;0.30;;;-7.40;99.90;;;;;;5072440;28;20456;-82
2022/12/17 22:43:29;;;;;;;0.30;0.30;;;-7.40;99.90;;;;;;5072645;28;20844;-81
2022/12/17 22:45:59;;;;;;;0.70;0.70;;;-7.40;99.90;;;;;;5072705;28;20417;-82
2022/12/17 22:48:26;;;;;;;0.87;0.87;;;-7.40;99.90;;;;;;5074489;28;20441;-82
2022/12/17 22:50:54;;;;;;;0.30;0.30;;;-7.40;99.90;;;;;;5076170;28;20449;-82
2022/12/17 22:53:21;;;;;;;0.60;0.60;;;-7.40;99.90;;;;;;5076104;28;20447;-82
2022/12/17 22:55:48;;;;;;;0.40;0.40;;;-7.40;99.90;;;;;;5076085;28;20445;-82
2022/12/17 22:58:15;;;;;;;0.30;0.30;;;-7.50;99.90;;;;;;5075966;28;20485;-82
2022/12/17 23:00:41;;;;;;;0.40;0.40;;;-7.60;99.90;;;;;;5075998;28;20450;-82
2022/12/17 23:03:08;;;;;;;6.87;1.50;;;-7.60;99.90;;;;;;5075866;28;20475;-82
2022/12/17 23:05:35;;;;;;;0.30;0.30;;;-7.50;99.90;;;;;;5075559;28;20452;-81
2022/12/17 23:08:04;;;;;;;0.30;0.30;;;-7.50;99.90;;;;;;5075897;28;20441;-82
2022/12/17 23:10:30;;;;;;;1.27;1.17;;;-7.60;99.90;;;;;;5075865;28;20452;-82
2022/12/17 23:12:57;;;;;;;0.30;0.30;;;-7.60;99.90;;;;;;5075701;28;20509;-82
2022/12/17 23:15:28;;;;;;;0.50;0.50;;;-7.60;99.90;;;;;;5075703;28;20524;-82
2022/12/17 23:17:57;;;;;;;0.60;0.60;;;-7.60;99.90;;;;;;5075638;28;20466;-82
2022/12/17 23:20:26;;;;;;;0.40;0.40;;;-7.70;99.90;;;;;;5075639;28;20441;-82
2022/12/17 23:22:53;;;;;;;0.30;0.30;;;-7.70;99.90;;;;;;5074996;28;21004;-81
2022/12/17 23:25:22;;;;;;;0.37;0.37;;;-7.70;99.90;;;;;;5075579;28;20433;-82
2022/12/17 23:27:49;;;;;;;0.40;0.40;;;-7.60;99.90;;;;;;5075517;28;20836;-82
2022/12/17 23:30:17;;;;;;;0.87;0.87;;;-7.60;99.90;;;;;;5075118;28;20448;-82
2022/12/17 23:32:44;;;;;;;0.40;0.40;;;-7.60;99.90;;;;;;5075322;28;20470;-82
2022/12/17 23:35:12;;;;;;;1.80;1.70;;;-7.50;99.90;;;;;;5075346;28;20452;-81
2022/12/17 23:37:39;;;;;;;0.30;0.30;;;-7.60;99.90;;;;;;5075334;28;20445;-82
2022/12/17 23:40:07;;;;;;;0.80;0.80;;;-7.50;99.90;;;;;;5075292;28;20425;-82
2022/12/17 23:42:35;;;;;;;0.70;0.70;;;-7.50;99.90;;;;;;5075343;28;20446;-81
2022/12/17 23:45:02;;;;;;;1.17;0.70;;;-7.50;99.90;;;;;;5075132;28;20453;-82
2022/12/17 23:47:30;;;;;;;0.60;0.60;;;-7.60;99.90;;;;;;5075097;28;20445;-82
2022/12/17 23:49:57;;;;;;;0.53;0.53;;;-7.60;99.90;;;;;;5075104;28;20811;-82
2022/12/17 23:52:24;;;;;;;0.70;0.70;;;-7.70;99.90;;;;;;5074920;28;20453;-82
2022/12/17 23:54:51;;;;;;;0.30;0.30;;;-7.70;99.90;;;;;;5075101;28;20445;-81
2022/12/17 23:57:18;;;;;;;0.40;0.40;;;-7.70;99.90;;;;;;5074917;28;20449;-81
2022/12/17 23:59:46;;;;;;;0.30;0.30;;;-7.60;99.90;;;;;;5074653;28;20481;-82
